sensor_id;sensor_type;location;lat;lon;timestamp;pressure;altitude;pressure_sealevel;temperature;humidity
63281;BME280;49406;51.044;3.766;2023-04-10T00:02:27;102057.80;;;10.52;92.62
63281;BME280;49406;51.044;3.766;2023-04-10T00:05:00;102057.95;;;10.51;92.50
63281;BME280;49406;51.044;3.766;2023-04-10T00:07:32;102055.84;;;10.51;92.30
63281;BME280;49406;51.044;3.766;2023-04-10T00:10:06;102054.04;;;10.49;92.38
63281;BME280;49406;51.044;3.766;2023-04-10T00:12:39;102056.97;;;10.47;92.18
63281;BME280;49406;51.044;3.766;2023-04-10T00:15:12;102059.13;;;10.43;92.08
63281;BME280;49406;51.044;3.766;2023-04-10T00:17:44;102054.44;;;10.39;92.10
63281;BME280;49406;51.044;3.766;2023-04-10T00:20:17;102051.86;;;10.34;92.12
63281;BME280;49406;51.044;3.766;2023-04-10T00:22:50;102043.27;;;10.32;92.12
63281;BME280;49406;51.044;3.766;2023-04-10T00:25:22;102038.86;;;10.31;91.79
63281;BME280;49406;51.044;3.766;2023-04-10T00:27:55;102027.81;;;10.42;90.95
63281;BME280;49406;51.044;3.766;2023-04-10T00:30:28;102022.59;;;10.49;90.22
63281;BME280;49406;51.044;3.766;2023-04-10T00:33:00;102011.77;;;10.50;90.03
63281;BME280;49406;51.044;3.766;2023-04-10T00:35:33;102011.21;;;10.49;90.11
63281;BME280;49406;51.044;3.766;2023-04-10T00:38:05;102006.35;;;10.43;89.99
63281;BME280;49406;51.044;3.766;2023-04-10T00:40:38;102001.37;;;10.41;90.10
63281;BME280;49406;51.044;3.766;2023-04-10T00:43:11;101996.41;;;10.39;89.95
63281;BME280;49406;51.044;3.766;2023-04-10T00:45:43;101992.33;;;10.37;89.42
63281;BME280;49406;51.044;3.766;2023-04-10T00:48:16;101993.83;;;10.40;89.20
63281;BME280;49406;51.044;3.766;2023-04-10T00:50:49;101991.00;;;10.39;88.85
63281;BME280;49406;51.044;3.766;2023-04-10T00:53:21;101990.48;;;10.39;88.57
63281;BME280;49406;51.044;3.766;2023-04-10T00:55:55;101986.79;;;10.39;88.34
63281;BME280;49406;51.044;3.766;2023-04-10T00:58:28;101987.45;;;10.37;87.89
63281;BME280;49406;51.044;3.766;2023-04-10T01:01:01;101983.45;;;10.38;87.33
63281;BME280;49406;51.044;3.766;2023-04-10T01:03:34;101983.83;;;10.52;86.46
63281;BME280;49406;51.044;3.766;2023-04-10T01:06:17;101983.91;;;10.55;86.10
63281;BME280;49406;51.044;3.766;2023-04-10T01:09:02;101979.42;;;10.50;86.01
63281;BME280;49406;51.044;3.766;2023-04-10T01:11:43;101969.88;;;10.46;85.59
63281;BME280;49406;51.044;3.766;2023-04-10T01:14:29;101967.45;;;10.47;85.36
63281;BME280;49406;51.044;3.766;2023-04-10T01:17:07;101966.08;;;10.48;85.10
63281;BME280;49406;51.044;3.766;2023-04-10T01:19:57;101961.46;;;10.46;85.20
63281;BME280;49406;51.044;3.766;2023-04-10T01:22:36;101958.99;;;10.45;84.63
63281;BME280;49406;51.044;3.766;2023-04-10T01:25:38;101954.64;;;10.45;84.17
63281;BME280;49406;51.044;3.766;2023-04-10T01:28:23;101947.23;;;10.63;82.82
63281;BME280;49406;51.044;3.766;2023-04-10T01:31:01;101942.42;;;10.67;81.91
63281;BME280;49406;51.044;3.766;2023-04-10T01:33:40;101942.08;;;10.67;81.84
63281;BME280;49406;51.044;3.766;2023-04-10T01:36:20;101937.15;;;10.65;82.25
63281;BME280;49406;51.044;3.766;2023-04-10T01:38:56;101935.00;;;10.63;81.58
63281;BME280;49406;51.044;3.766;2023-04-10T01:41:31;101933.74;;;10.63;81.71
63281;BME280;49406;51.044;3.766;2023-04-10T01:44:05;101932.92;;;10.58;81.60
63281;BME280;49406;51.044;3.766;2023-04-10T01:46:38;101930.92;;;10.55;81.61
63281;BME280;49406;51.044;3.766;2023-04-10T01:49:13;101929.61;;;10.51;81.49
63281;BME280;49406;51.044;3.766;2023-04-10T01:51:47;101928.64;;;10.47;81.77
63281;BME280;49406;51.044;3.766;2023-04-10T01:54:20;101934.08;;;10.42;81.78
63281;BME280;49406;51.044;3.766;2023-04-10T01:56:53;101932.83;;;10.34;81.98
63281;BME280;49406;51.044;3.766;2023-04-10T01:59:27;101933.38;;;10.28;82.29
63281;BME280;49406;51.044;3.766;2023-04-10T02:02:00;101932.13;;;10.34;82.08
63281;BME280;49406;51.044;3.766;2023-04-10T02:04:33;101931.18;;;10.31;82.25
63281;BME280;49406;51.044;3.766;2023-04-10T02:07:10;101925.61;;;10.25;82.68
63281;BME280;49406;51.044;3.766;2023-04-10T02:09:49;101929.18;;;10.16;83.52
63281;BME280;49406;51.044;3.766;2023-04-10T02:12:27;101927.16;;;10.07;84.09
63281;BME280;49406;51.044;3.766;2023-04-10T02:15:03;101922.99;;;10.02;84.27
63281;BME280;49406;51.044;3.766;2023-04-10T02:17:38;101925.14;;;9.97;84.36
63281;BME280;49406;51.044;3.766;2023-04-10T02:20:12;101924.17;;;9.92;84.60
63281;BME280;49406;51.044;3.766;2023-04-10T02:22:45;101923.36;;;9.89;84.37
63281;BME280;49406;51.044;3.766;2023-04-10T02:25:18;101923.15;;;9.88;84.37
63281;BME280;49406;51.044;3.766;2023-04-10T02:27:51;101924.38;;;9.88;84.23
63281;BME280;49406;51.044;3.766;2023-04-10T02:30:24;101923.23;;;10.03;83.50
63281;BME280;49406;51.044;3.766;2023-04-10T02:32:57;101924.31;;;10.06;83.36
63281;BME280;49406;51.044;3.766;2023-04-10T02:35:29;101917.16;;;9.99;83.60
63281;BME280;49406;51.044;3.766;2023-04-10T02:38:02;101916.77;;;9.91;83.86
63281;BME280;49406;51.044;3.766;2023-04-10T02:40:35;101918.56;;;9.86;83.77
63281;BME280;49406;51.044;3.766;2023-04-10T02:43:07;101916.75;;;9.84;83.85
63281;BME280;49406;51.044;3.766;2023-04-10T02:45:40;101918.80;;;9.82;83.75
63281;BME280;49406;51.044;3.766;2023-04-10T02:48:13;101916.17;;;9.82;83.69
63281;BME280;49406;51.044;3.766;2023-04-10T02:50:46;101919.45;;;9.81;83.51
63281;BME280;49406;51.044;3.766;2023-04-10T02:53:18;101922.31;;;9.89;83.06
63281;BME280;49406;51.044;3.766;2023-04-10T02:55:54;101923.69;;;10.02;82.41
63281;BME280;49406;51.044;3.766;2023-04-10T02:58:27;101921.13;;;10.03;82.24
63281;BME280;49406;51.044;3.766;2023-04-10T03:01:01;101915.73;;;9.98;82.03
63281;BME280;49406;51.044;3.766;2023-04-10T03:03:34;101917.85;;;9.99;81.92
63281;BME280;49406;51.044;3.766;2023-04-10T03:06:08;101914.14;;;9.97;81.81
63281;BME280;49406;51.044;3.766;2023-04-10T03:08:41;101914.81;;;9.95;81.74
63281;BME280;49406;51.044;3.766;2023-04-10T03:11:13;101907.91;;;9.92;81.71
63281;BME280;49406;51.044;3.766;2023-04-10T03:13:46;101899.84;;;9.91;81.63
63281;BME280;49406;51.044;3.766;2023-04-10T03:16:19;101892.23;;;9.88;81.69
63281;BME280;49406;51.044;3.766;2023-04-10T03:18:52;101885.30;;;9.84;82.02
63281;BME280;49406;51.044;3.766;2023-04-10T03:21:25;101883.14;;;9.81;81.79
63281;BME280;49406;51.044;3.766;2023-04-10T03:23:58;101875.89;;;9.90;81.03
63281;BME280;49406;51.044;3.766;2023-04-10T03:26:32;101870.85;;;9.98;80.60
63281;BME280;49406;51.044;3.766;2023-04-10T03:29:04;101867.86;;;9.97;80.66
63281;BME280;49406;51.044;3.766;2023-04-10T03:31:37;101865.77;;;9.91;81.10
63281;BME280;49406;51.044;3.766;2023-04-10T03:34:09;101862.15;;;9.87;81.25
63281;BME280;49406;51.044;3.766;2023-04-10T03:36:42;101858.57;;;9.83;81.32
63281;BME280;49406;51.044;3.766;2023-04-10T03:39:14;101854.30;;;9.80;81.32
63281;BME280;49406;51.044;3.766;2023-04-10T03:41:47;101851.59;;;9.77;81.39
63281;BME280;49406;51.044;3.766;2023-04-10T03:44:20;101852.04;;;9.74;81.60
63281;BME280;49406;51.044;3.766;2023-04-10T03:46:53;101846.02;;;9.72;81.46
63281;BME280;49406;51.044;3.766;2023-04-10T03:49:26;101840.90;;;9.70;81.37
63281;BME280;49406;51.044;3.766;2023-04-10T03:51:59;101833.02;;;9.69;81.45
63281;BME280;49406;51.044;3.766;2023-04-10T03:54:31;101836.34;;;9.69;81.37
63281;BME280;49406;51.044;3.766;2023-04-10T03:57:04;101836.80;;;9.79;80.88
63281;BME280;49406;51.044;3.766;2023-04-10T03:59:37;101834.36;;;9.79;80.62
63281;BME280;49406;51.044;3.766;2023-04-10T04:02:10;101831.00;;;9.78;80.46
63281;BME280;49406;51.044;3.766;2023-04-10T04:04:42;101834.67;;;9.78;80.48
63281;BME280;49406;51.044;3.766;2023-04-10T04:07:15;101828.91;;;9.77;80.53
63281;BME280;49406;51.044;3.766;2023-04-10T04:09:47;101829.73;;;9.75;80.39
63281;BME280;49406;51.044;3.766;2023-04-10T04:12:20;101831.48;;;9.76;80.34
63281;BME280;49406;51.044;3.766;2023-04-10T04:14:53;101833.72;;;9.75;80.68
63281;BME280;49406;51.044;3.766;2023-04-10T04:17:25;101833.63;;;9.72;80.69
63281;BME280;49406;51.044;3.766;2023-04-10T04:19:58;101830.41;;;9.69;80.67
63281;BME280;49406;51.044;3.766;2023-04-10T04:22:30;101827.55;;;9.67;80.92
63281;BME280;49406;51.044;3.766;2023-04-10T04:25:04;101826.21;;;9.62;81.26
63281;BME280;49406;51.044;3.766;2023-04-10T04:27:39;101826.86;;;9.67;81.11
63281;BME280;49406;51.044;3.766;2023-04-10T04:30:12;101823.51;;;9.72;80.94
63281;BME280;49406;51.044;3.766;2023-04-10T04:32:45;101818.21;;;9.71;80.98
63281;BME280;49406;51.044;3.766;2023-04-10T04:35:17;101822.23;;;9.64;81.22
63281;BME280;49406;51.044;3.766;2023-04-10T04:37:50;101820.36;;;9.59;81.61
63281;BME280;49406;51.044;3.766;2023-04-10T04:40:22;101818.12;;;9.55;81.66
63281;BME280;49406;51.044;3.766;2023-04-10T04:42:55;101810.02;;;9.52;81.82
63281;BME280;49406;51.044;3.766;2023-04-10T04:45:28;101802.44;;;9.49;82.00
63281;BME280;49406;51.044;3.766;2023-04-10T04:48:01;101797.31;;;9.47;82.06
63281;BME280;49406;51.044;3.766;2023-04-10T04:50:34;101793.21;;;9.43;82.34
63281;BME280;49406;51.044;3.766;2023-04-10T04:53:07;101790.90;;;9.42;82.34
63281;BME280;49406;51.044;3.766;2023-04-10T04:55:39;101789.56;;;9.39;82.41
63281;BME280;49406;51.044;3.766;2023-04-10T04:58:12;101789.98;;;9.41;81.87
63281;BME280;49406;51.044;3.766;2023-04-10T05:00:44;101791.34;;;9.52;81.47
63281;BME280;49406;51.044;3.766;2023-04-10T05:03:17;101793.81;;;9.53;81.03
63281;BME280;49406;51.044;3.766;2023-04-10T05:05:49;101795.70;;;9.52;81.16
63281;BME280;49406;51.044;3.766;2023-04-10T05:08:22;101796.70;;;9.50;81.27
63281;BME280;49406;51.044;3.766;2023-04-10T05:10:55;101796.31;;;9.49;81.27
63281;BME280;49406;51.044;3.766;2023-04-10T05:13:27;101797.48;;;9.47;81.21
63281;BME280;49406;51.044;3.766;2023-04-10T05:16:00;101795.37;;;9.46;81.26
63281;BME280;49406;51.044;3.766;2023-04-10T05:18:33;101790.42;;;9.44;81.11
63281;BME280;49406;51.044;3.766;2023-04-10T05:21:07;101783.98;;;9.44;80.94
63281;BME280;49406;51.044;3.766;2023-04-10T05:23:39;101788.71;;;9.45;80.97
63281;BME280;49406;51.044;3.766;2023-04-10T05:26:11;101787.48;;;9.45;81.17
63281;BME280;49406;51.044;3.766;2023-04-10T05:28:44;101787.09;;;9.43;81.11
63281;BME280;49406;51.044;3.766;2023-04-10T05:31:17;101785.55;;;9.44;81.04
63281;BME280;49406;51.044;3.766;2023-04-10T05:33:49;101788.00;;;9.44;80.97
63281;BME280;49406;51.044;3.766;2023-04-10T05:36:22;101791.18;;;9.46;80.90
63281;BME280;49406;51.044;3.766;2023-04-10T05:38:55;101790.30;;;9.58;80.54
63281;BME280;49406;51.044;3.766;2023-04-10T05:41:27;101792.81;;;9.68;79.82
63281;BME280;49406;51.044;3.766;2023-04-10T05:44:00;101798.34;;;9.71;79.86
63281;BME280;49406;51.044;3.766;2023-04-10T05:46:32;101791.32;;;9.71;79.68
63281;BME280;49406;51.044;3.766;2023-04-10T05:49:05;101789.10;;;9.72;79.66
63281;BME280;49406;51.044;3.766;2023-04-10T05:51:37;101784.52;;;9.76;79.27
63281;BME280;49406;51.044;3.766;2023-04-10T05:54:10;101784.73;;;9.78;78.97
63281;BME280;49406;51.044;3.766;2023-04-10T05:56:42;101779.40;;;9.82;78.60
63281;BME280;49406;51.044;3.766;2023-04-10T05:59:15;101778.29;;;9.86;77.97
63281;BME280;49406;51.044;3.766;2023-04-10T06:01:48;101780.03;;;9.92;77.91
63281;BME280;49406;51.044;3.766;2023-04-10T06:04:20;101781.01;;;9.96;77.57
63281;BME280;49406;51.044;3.766;2023-04-10T06:06:53;101778.46;;;10.00;77.59
63281;BME280;49406;51.044;3.766;2023-04-10T06:09:26;101774.19;;;10.04;77.13
63281;BME280;49406;51.044;3.766;2023-04-10T06:11:58;101770.36;;;10.11;76.66
63281;BME280;49406;51.044;3.766;2023-04-10T06:14:32;101765.92;;;10.28;75.41
63281;BME280;49406;51.044;3.766;2023-04-10T06:17:04;101758.91;;;10.34;75.00
63281;BME280;49406;51.044;3.766;2023-04-10T06:19:37;101748.60;;;10.35;74.86
63281;BME280;49406;51.044;3.766;2023-04-10T06:22:10;101744.16;;;10.39;74.72
63281;BME280;49406;51.044;3.766;2023-04-10T06:24:42;101746.04;;;10.43;74.76
63281;BME280;49406;51.044;3.766;2023-04-10T06:27:15;101745.95;;;10.48;74.68
63281;BME280;49406;51.044;3.766;2023-04-10T06:29:47;101739.59;;;10.53;74.49
63281;BME280;49406;51.044;3.766;2023-04-10T06:32:20;101738.29;;;10.58;73.44
63281;BME280;49406;51.044;3.766;2023-04-10T06:34:52;101741.94;;;10.64;73.09
63281;BME280;49406;51.044;3.766;2023-04-10T06:37:29;101741.03;;;10.71;73.31
63281;BME280;49406;51.044;3.766;2023-04-10T06:40:04;101735.05;;;10.77;73.02
63281;BME280;49406;51.044;3.766;2023-04-10T06:42:37;101728.00;;;10.82;72.35
63281;BME280;49406;51.044;3.766;2023-04-10T06:45:10;101729.73;;;10.90;72.74
63281;BME280;49406;51.044;3.766;2023-04-10T06:47:43;101722.68;;;10.95;72.52
63281;BME280;49406;51.044;3.766;2023-04-10T06:50:15;101713.32;;;11.00;71.82
63281;BME280;49406;51.044;3.766;2023-04-10T06:52:48;101713.05;;;11.04;71.38
63281;BME280;49406;51.044;3.766;2023-04-10T06:55:21;101714.40;;;11.10;71.25
63281;BME280;49406;51.044;3.766;2023-04-10T06:57:53;101709.09;;;11.16;71.23
63281;BME280;49406;51.044;3.766;2023-04-10T07:00:27;101705.04;;;11.24;71.57
63281;BME280;49406;51.044;3.766;2023-04-10T07:03:00;101702.54;;;11.30;70.97
63281;BME280;49406;51.044;3.766;2023-04-10T07:05:32;101705.60;;;11.35;70.53
63281;BME280;49406;51.044;3.766;2023-04-10T07:08:05;101697.98;;;11.40;70.21
63281;BME280;49406;51.044;3.766;2023-04-10T07:10:39;101688.67;;;11.47;70.35
63281;BME280;49406;51.044;3.766;2023-04-10T07:13:12;101683.33;;;11.52;69.98
63281;BME280;49406;51.044;3.766;2023-04-10T07:15:44;101685.17;;;11.58;70.03
63281;BME280;49406;51.044;3.766;2023-04-10T07:18:17;101681.94;;;11.62;69.79
63281;BME280;49406;51.044;3.766;2023-04-10T07:20:50;101676.59;;;11.68;70.56
63281;BME280;49406;51.044;3.766;2023-04-10T07:23:23;101676.84;;;11.73;70.05
63281;BME280;49406;51.044;3.766;2023-04-10T07:25:56;101673.84;;;11.79;69.77
63281;BME280;49406;51.044;3.766;2023-04-10T07:28:29;101675.64;;;11.83;69.79
63281;BME280;49406;51.044;3.766;2023-04-10T07:31:04;101676.19;;;11.84;69.35
63281;BME280;49406;51.044;3.766;2023-04-10T07:33:39;101674.58;;;11.92;69.68
63281;BME280;49406;51.044;3.766;2023-04-10T07:36:11;101665.95;;;12.00;69.56
63281;BME280;49406;51.044;3.766;2023-04-10T07:38:44;101662.77;;;12.11;69.38
63281;BME280;49406;51.044;3.766;2023-04-10T07:41:17;101657.63;;;12.18;68.17
63281;BME280;49406;51.044;3.766;2023-04-10T07:43:49;101654.23;;;12.26;68.04
63281;BME280;49406;51.044;3.766;2023-04-10T07:46:22;101658.77;;;12.38;68.32
63281;BME280;49406;51.044;3.766;2023-04-10T07:48:54;101647.95;;;12.43;66.61
63281;BME280;49406;51.044;3.766;2023-04-10T07:51:27;101648.56;;;12.48;67.05
63281;BME280;49406;51.044;3.766;2023-04-10T07:53:59;101648.13;;;12.56;66.56
63281;BME280;49406;51.044;3.766;2023-04-10T07:56:32;101644.02;;;12.61;66.65
63281;BME280;49406;51.044;3.766;2023-04-10T07:59:05;101638.27;;;12.66;66.86
63281;BME280;49406;51.044;3.766;2023-04-10T08:01:38;101638.85;;;12.70;66.15
63281;BME280;49406;51.044;3.766;2023-04-10T08:04:10;101634.13;;;12.73;65.96
63281;BME280;49406;51.044;3.766;2023-04-10T08:06:43;101632.12;;;12.79;66.80
63281;BME280;49406;51.044;3.766;2023-04-10T08:09:15;101623.42;;;12.87;66.19
63281;BME280;49406;51.044;3.766;2023-04-10T08:11:48;101625.13;;;12.98;65.95
63281;BME280;49406;51.044;3.766;2023-04-10T08:14:20;101615.13;;;12.98;65.37
63281;BME280;49406;51.044;3.766;2023-04-10T08:16:53;101612.02;;;13.05;65.62
63281;BME280;49406;51.044;3.766;2023-04-10T08:19:25;101609.26;;;13.09;64.84
63281;BME280;49406;51.044;3.766;2023-04-10T08:21:58;101609.46;;;13.11;65.21
63281;BME280;49406;51.044;3.766;2023-04-10T08:24:30;101611.61;;;13.13;64.74
63281;BME280;49406;51.044;3.766;2023-04-10T08:27:03;101609.16;;;13.15;64.54
63281;BME280;49406;51.044;3.766;2023-04-10T08:29:35;101609.89;;;13.17;64.98
63281;BME280;49406;51.044;3.766;2023-04-10T08:32:08;101612.04;;;13.20;64.97
63281;BME280;49406;51.044;3.766;2023-04-10T08:34:40;101614.59;;;13.29;65.29
63281;BME280;49406;51.044;3.766;2023-04-10T08:37:13;101603.95;;;13.37;64.40
63281;BME280;49406;51.044;3.766;2023-04-10T08:39:46;101597.33;;;13.43;64.79
63281;BME280;49406;51.044;3.766;2023-04-10T08:42:19;101590.21;;;13.53;64.87
63281;BME280;49406;51.044;3.766;2023-04-10T08:44:52;101583.29;;;13.66;64.71
63281;BME280;49406;51.044;3.766;2023-04-10T08:47:27;101580.73;;;13.78;64.23
63281;BME280;49406;51.044;3.766;2023-04-10T08:50:06;101580.64;;;13.91;64.00
63281;BME280;49406;51.044;3.766;2023-04-10T08:52:43;101576.49;;;14.06;63.51
63281;BME280;49406;51.044;3.766;2023-04-10T08:55:17;101570.20;;;14.11;63.51
63281;BME280;49406;51.044;3.766;2023-04-10T08:57:50;101572.87;;;14.16;63.47
63281;BME280;49406;51.044;3.766;2023-04-10T09:00:23;101572.92;;;14.26;63.67
63281;BME280;49406;51.044;3.766;2023-04-10T09:02:56;101569.61;;;14.33;63.30
63281;BME280;49406;51.044;3.766;2023-04-10T09:05:30;101563.98;;;14.30;62.43
63281;BME280;49406;51.044;3.766;2023-04-10T09:08:03;101568.02;;;14.29;62.73
63281;BME280;49406;51.044;3.766;2023-04-10T09:10:35;101570.32;;;14.38;63.16
63281;BME280;49406;51.044;3.766;2023-04-10T09:13:08;101574.45;;;14.48;62.76
63281;BME280;49406;51.044;3.766;2023-04-10T09:15:58;101570.61;;;14.56;63.07
63281;BME280;49406;51.044;3.766;2023-04-10T09:18:44;101567.66;;;14.65;62.81
63281;BME280;49406;51.044;3.766;2023-04-10T09:21:19;101569.23;;;14.69;62.64
63281;BME280;49406;51.044;3.766;2023-04-10T09:23:59;101563.44;;;14.72;62.15
63281;BME280;49406;51.044;3.766;2023-04-10T09:26:32;101560.62;;;14.75;62.19
63281;BME280;49406;51.044;3.766;2023-04-10T09:29:07;101557.84;;;14.82;62.40
63281;BME280;49406;51.044;3.766;2023-04-10T09:31:42;101555.05;;;14.98;62.24
63281;BME280;49406;51.044;3.766;2023-04-10T09:34:16;101545.91;;;15.18;62.71
63281;BME280;49406;51.044;3.766;2023-04-10T09:36:54;101537.44;;;15.56;62.81
63281;BME280;49406;51.044;3.766;2023-04-10T09:39:32;101531.55;;;15.99;60.15
63281;BME280;49406;51.044;3.766;2023-04-10T09:42:05;101532.50;;;16.28;59.65
63281;BME280;49406;51.044;3.766;2023-04-10T09:44:39;101516.41;;;16.36;58.30
63281;BME280;49406;51.044;3.766;2023-04-10T09:47:19;101517.84;;;16.34;57.41
63281;BME280;49406;51.044;3.766;2023-04-10T09:49:53;101511.43;;;16.42;58.14
63281;BME280;49406;51.044;3.766;2023-04-10T09:52:28;101518.47;;;16.49;57.59
63281;BME280;49406;51.044;3.766;2023-04-10T09:55:02;101516.84;;;16.53;57.55
63281;BME280;49406;51.044;3.766;2023-04-10T09:57:35;101511.32;;;16.62;57.54
63281;BME280;49406;51.044;3.766;2023-04-10T10:00:10;101502.66;;;16.67;57.52
63281;BME280;49406;51.044;3.766;2023-04-10T10:02:45;101496.83;;;16.70;57.31
63281;BME280;49406;51.044;3.766;2023-04-10T10:05:18;101483.95;;;16.66;57.68
63281;BME280;49406;51.044;3.766;2023-04-10T10:07:51;101485.01;;;16.69;57.46
63281;BME280;49406;51.044;3.766;2023-04-10T10:10:24;101482.81;;;16.80;57.06
63281;BME280;49406;51.044;3.766;2023-04-10T10:12:59;101476.94;;;16.86;56.96
63281;BME280;49406;51.044;3.766;2023-04-10T10:15:37;101467.86;;;16.93;57.26
63281;BME280;49406;51.044;3.766;2023-04-10T10:18:19;101467.14;;;16.96;57.43
63281;BME280;49406;51.044;3.766;2023-04-10T10:20:53;101465.73;;;16.95;57.05
63281;BME280;49406;51.044;3.766;2023-04-10T10:23:27;101459.58;;;16.92;57.03
63281;BME280;49406;51.044;3.766;2023-04-10T10:26:01;101451.21;;;17.00;57.29
63281;BME280;49406;51.044;3.766;2023-04-10T10:28:36;101448.48;;;17.09;57.20
63281;BME280;49406;51.044;3.766;2023-04-10T10:31:09;101444.35;;;17.17;56.92
63281;BME280;49406;51.044;3.766;2023-04-10T10:33:43;101445.15;;;17.25;56.88
63281;BME280;49406;51.044;3.766;2023-04-10T10:36:19;101439.98;;;17.29;56.79
63281;BME280;49406;51.044;3.766;2023-04-10T10:39:10;101435.08;;;17.25;57.03
63281;BME280;49406;51.044;3.766;2023-04-10T10:41:50;101431.82;;;17.16;56.69
63281;BME280;49406;51.044;3.766;2023-04-10T10:44:33;101424.52;;;17.03;56.97
63281;BME280;49406;51.044;3.766;2023-04-10T10:47:14;101413.66;;;16.92;57.18
63281;BME280;49406;51.044;3.766;2023-04-10T10:49:56;101408.61;;;16.84;58.06
63281;BME280;49406;51.044;3.766;2023-04-10T10:52:43;101403.51;;;16.83;58.16
63281;BME280;49406;51.044;3.766;2023-04-10T10:55:39;101395.23;;;16.79;57.90
63281;BME280;49406;51.044;3.766;2023-04-10T10:58:11;101397.02;;;16.76;58.23
63281;BME280;49406;51.044;3.766;2023-04-10T11:01:05;101394.21;;;16.73;58.91
63281;BME280;49406;51.044;3.766;2023-04-10T11:03:41;101396.08;;;16.84;58.61
63281;BME280;49406;51.044;3.766;2023-04-10T11:06:16;101396.19;;;16.90;57.95
63281;BME280;49406;51.044;3.766;2023-04-10T11:08:50;101396.31;;;16.96;58.30
63281;BME280;49406;51.044;3.766;2023-04-10T11:11:24;101394.71;;;16.98;57.22
63281;BME280;49406;51.044;3.766;2023-04-10T11:14:14;101389.26;;;16.95;57.68
63281;BME280;49406;51.044;3.766;2023-04-10T11:16:50;101390.13;;;16.98;57.99
63281;BME280;49406;51.044;3.766;2023-04-10T11:19:22;101392.95;;;16.98;57.97
63281;BME280;49406;51.044;3.766;2023-04-10T11:22:06;101385.43;;;16.89;60.39
63281;BME280;49406;51.044;3.766;2023-04-10T11:24:58;101384.55;;;16.67;62.40
63281;BME280;49406;51.044;3.766;2023-04-10T11:27:44;101380.01;;;16.35;65.71
63281;BME280;49406;51.044;3.766;2023-04-10T11:30:30;101382.98;;;16.11;66.90
63281;BME280;49406;51.044;3.766;2023-04-10T11:33:04;101383.63;;;15.89;68.17
63281;BME280;49406;51.044;3.766;2023-04-10T11:35:38;101387.77;;;15.75;69.58
63281;BME280;49406;51.044;3.766;2023-04-10T11:38:16;101389.39;;;15.63;69.72
63281;BME280;49406;51.044;3.766;2023-04-10T11:40:56;101384.84;;;15.50;70.43
63281;BME280;49406;51.044;3.766;2023-04-10T11:43:29;101376.08;;;15.32;73.29
63281;BME280;49406;51.044;3.766;2023-04-10T11:46:05;101375.41;;;15.14;76.17
63281;BME280;49406;51.044;3.766;2023-04-10T11:48:38;101366.29;;;15.01;77.96
63281;BME280;49406;51.044;3.766;2023-04-10T11:51:12;101363.48;;;14.88;78.17
63281;BME280;49406;51.044;3.766;2023-04-10T11:53:45;101368.25;;;14.79;79.66
63281;BME280;49406;51.044;3.766;2023-04-10T11:56:19;101372.84;;;14.71;82.32
63281;BME280;49406;51.044;3.766;2023-04-10T11:58:52;101366.51;;;14.63;84.46
63281;BME280;49406;51.044;3.766;2023-04-10T12:01:25;101370.02;;;14.65;84.84
63281;BME280;49406;51.044;3.766;2023-04-10T12:03:58;101368.79;;;14.62;85.78
63281;BME280;49406;51.044;3.766;2023-04-10T12:06:31;101365.09;;;14.54;86.71
63281;BME280;49406;51.044;3.766;2023-04-10T12:09:12;101365.98;;;14.48;88.38
63281;BME280;49406;51.044;3.766;2023-04-10T12:11:50;101360.48;;;14.42;89.19
63281;BME280;49406;51.044;3.766;2023-04-10T12:14:27;101360.83;;;14.34;89.21
63281;BME280;49406;51.044;3.766;2023-04-10T12:17:02;101354.14;;;14.35;89.58
63281;BME280;49406;51.044;3.766;2023-04-10T12:19:37;101344.81;;;14.35;91.08
63281;BME280;49406;51.044;3.766;2023-04-10T12:22:12;101346.94;;;14.31;92.74
63281;BME280;49406;51.044;3.766;2023-04-10T12:24:46;101333.39;;;14.29;93.60
63281;BME280;49406;51.044;3.766;2023-04-10T12:27:19;101327.04;;;14.27;93.32
63281;BME280;49406;51.044;3.766;2023-04-10T12:29:53;101321.05;;;14.26;94.36
63281;BME280;49406;51.044;3.766;2023-04-10T12:32:26;101322.14;;;14.30;95.27
63281;BME280;49406;51.044;3.766;2023-04-10T12:34:58;101314.40;;;14.42;94.33
63281;BME280;49406;51.044;3.766;2023-04-10T12:37:46;101309.50;;;14.46;95.23
63281;BME280;49406;51.044;3.766;2023-04-10T12:40:19;101304.04;;;14.44;94.65
63281;BME280;49406;51.044;3.766;2023-04-10T12:42:52;101304.23;;;14.48;94.52
63281;BME280;49406;51.044;3.766;2023-04-10T12:45:41;101294.54;;;14.50;94.44
63281;BME280;49406;51.044;3.766;2023-04-10T12:48:23;101286.09;;;14.59;93.47
63281;BME280;49406;51.044;3.766;2023-04-10T12:50:55;101277.45;;;14.67;94.47
63281;BME280;49406;51.044;3.766;2023-04-10T12:53:28;101271.63;;;14.69;94.39
63281;BME280;49406;51.044;3.766;2023-04-10T12:56:02;101268.29;;;14.69;94.62
63281;BME280;49406;51.044;3.766;2023-04-10T12:58:37;101269.35;;;14.66;93.51
63281;BME280;49406;51.044;3.766;2023-04-10T13:01:10;101262.50;;;14.66;93.59
63281;BME280;49406;51.044;3.766;2023-04-10T13:03:45;101246.27;;;14.75;93.20
63281;BME280;49406;51.044;3.766;2023-04-10T13:06:19;101232.89;;;14.83;92.53
63281;BME280;49406;51.044;3.766;2023-04-10T13:08:52;101229.55;;;14.81;92.61
63281;BME280;49406;51.044;3.766;2023-04-10T13:11:26;101221.79;;;14.86;93.30
63281;BME280;49406;51.044;3.766;2023-04-10T13:13:59;101214.02;;;14.92;92.92
63281;BME280;49406;51.044;3.766;2023-04-10T13:16:31;101211.19;;;14.98;92.74
63281;BME280;49406;51.044;3.766;2023-04-10T13:19:04;101203.02;;;15.08;91.43
63281;BME280;49406;51.044;3.766;2023-04-10T13:21:36;101203.13;;;15.24;90.74
63281;BME280;49406;51.044;3.766;2023-04-10T13:24:09;101212.94;;;15.34;89.08
63281;BME280;49406;51.044;3.766;2023-04-10T13:26:41;101216.91;;;15.50;89.43
63281;BME280;49406;51.044;3.766;2023-04-10T13:29:14;101215.80;;;15.57;87.26
63281;BME280;49406;51.044;3.766;2023-04-10T13:31:46;101214.53;;;15.67;87.82